createdAt,value
2019-06-10T00:07:21.068Z,99.99
2019-06-10T00:10:01.055Z,99.99
2019-06-10T00:11:01.711Z,99.99
2019-06-10T00:13:41.416Z,99.99
2019-06-10T00:16:20.780Z,99.99
2019-06-10T00:21:59.827Z,99.99
2019-06-10T00:22:57.639Z,99.99
2019-06-10T00:25:37.854Z,99.99
2019-06-10T00:26:36.489Z,99.99
2019-06-10T00:27:35.044Z,99.99
2019-06-10T00:30:00.538Z,99.99
2019-06-10T00:30:58.180Z,99.99
2019-06-10T00:31:56.333Z,99.99
2019-06-10T00:33:53.469Z,99.99
2019-06-10T00:34:52.079Z,99.99
2019-06-10T00:35:51.449Z,99.99
2019-06-10T00:36:50.834Z,99.99
2019-06-10T00:37:47.757Z,99.99
2019-06-10T00:38:46.285Z,99.99
2019-06-10T00:39:44.796Z,99.99
2019-06-10T00:40:43.340Z,99.99
2019-06-10T00:41:42.770Z,99.99
2019-06-10T00:42:41.731Z,99.99
2019-06-10T00:43:41.115Z,99.99
2019-06-10T00:44:37.726Z,99.99
2019-06-10T00:45:36.413Z,99.99
2019-06-10T00:46:34.927Z,99.99
2019-06-10T00:47:33.555Z,99.99
2019-06-10T00:48:32.547Z,99.99
2019-06-10T00:49:31.662Z,99.99
2019-06-10T00:50:30.810Z,99.99
2019-06-10T00:51:28.001Z,99.99
2019-06-10T00:52:26.553Z,99.99
2019-06-10T00:53:25.113Z,99.99
2019-06-10T00:54:23.768Z,99.99
2019-06-10T00:55:22.459Z,99.99
2019-06-10T00:56:21.671Z,99.99
2019-06-10T00:57:20.876Z,99.99
2019-06-10T00:58:18.377Z,99.99
2019-06-10T00:59:16.933Z,99.99
2019-06-10T01:00:25.108Z,99.99
2019-06-10T01:01:14.644Z,99.99
2019-06-10T01:02:14.393Z,99.99
2019-06-10T01:03:14.640Z,99.99
2019-06-10T01:04:14.123Z,99.99
2019-06-10T01:05:09.695Z,99.99
2019-06-10T01:06:06.831Z,99.99
2019-06-10T01:07:06.494Z,99.99
2019-06-10T01:08:04.545Z,99.99
2019-06-10T01:09:02.680Z,99.99
2019-06-10T01:10:01.505Z,99.99
2019-06-10T01:11:04.096Z,99.99
2019-06-10T01:12:01.032Z,99.99
2019-06-10T01:12:57.159Z,99.99
2019-06-10T01:13:55.714Z,99.99
2019-06-10T01:14:54.279Z,99.99
2019-06-10T01:15:52.880Z,99.99
2019-06-10T01:16:51.738Z,99.99
2019-06-10T01:17:51.094Z,99.99
2019-06-10T01:18:51.000Z,99.99
2019-06-10T01:19:47.609Z,99.99
2019-06-10T01:20:46.360Z,99.99
2019-06-10T01:21:44.921Z,99.99
2019-06-10T01:22:43.484Z,99.99
2019-06-10T01:23:42.030Z,99.99
2019-06-10T01:24:40.852Z,99.99
2019-06-10T01:25:41.879Z,99.99
2019-06-10T01:26:37.786Z,99.99
2019-06-10T01:27:36.376Z,99.99
2019-06-10T01:28:34.943Z,99.99
2019-06-10T01:29:33.483Z,99.99
2019-06-10T01:30:32.294Z,99.99
2019-06-10T01:31:31.688Z,99.99
2019-06-10T01:32:31.156Z,99.99
2019-06-10T01:33:27.984Z,99.99
2019-06-10T01:34:26.665Z,99.99
2019-06-10T01:35:25.220Z,99.99
2019-06-10T01:36:23.869Z,99.99
2019-06-10T01:37:22.829Z,99.99
2019-06-10T01:38:21.424Z,99.99
2019-06-10T01:39:22.421Z,99.99
2019-06-10T01:40:20.446Z,99.99
2019-06-10T01:41:17.210Z,99.99
2019-06-10T01:42:17.080Z,99.99
2019-06-10T01:43:17.128Z,99.99
2019-06-10T01:44:14.601Z,99.99
2019-06-10T01:45:13.076Z,99.99
2019-06-10T01:46:11.671Z,99.99
2019-06-10T01:47:08.758Z,99.99
2019-06-10T01:48:07.205Z,99.99
2019-06-10T01:49:06.949Z,99.99
2019-06-10T01:50:04.552Z,99.99
2019-06-10T01:51:03.142Z,99.99
2019-06-10T01:52:01.830Z,99.99
2019-06-10T01:53:00.599Z,99.99
2019-06-10T01:54:01.170Z,99.99
2019-06-10T01:54:57.537Z,99.99
2019-06-10T01:55:56.206Z,99.99
2019-06-10T01:56:54.769Z,99.99
2019-06-10T01:57:53.480Z,99.99
2019-06-10T01:58:52.258Z,99.99
2019-06-10T01:59:51.010Z,99.99
2019-06-10T02:00:50.713Z,99.99
2019-06-10T02:01:47.954Z,99.99
2019-06-10T02:02:46.547Z,99.99
2019-06-10T02:03:45.083Z,99.99
2019-06-10T02:04:43.661Z,99.99
2019-06-10T02:05:42.304Z,99.99
2019-06-10T02:06:40.858Z,99.99
2019-06-10T02:07:40.942Z,99.99
2019-06-10T02:08:38.109Z,99.99
2019-06-10T02:09:36.660Z,99.99
2019-06-10T02:10:35.219Z,99.99
2019-06-10T02:11:33.904Z,99.99
2019-06-10T02:12:32.452Z,99.99
2019-06-10T02:13:32.401Z,99.99
2019-06-10T02:14:31.701Z,99.99
2019-06-10T02:15:28.306Z,99.99
2019-06-10T02:16:26.848Z,99.99
2019-06-10T02:17:25.449Z,99.99
2019-06-10T02:18:24.094Z,99.99
2019-06-10T02:19:23.001Z,99.99
2019-06-10T02:20:23.784Z,99.99
2019-06-10T02:21:24.242Z,99.99
2019-06-10T02:22:20.518Z,99.99
2019-06-10T02:23:18.628Z,99.99
2019-06-10T02:24:16.353Z,99.99
2019-06-10T02:25:15.165Z,99.99
2019-06-10T02:26:14.879Z,99.99
2019-06-10T02:27:13.201Z,99.99
2019-06-10T02:28:12.794Z,99.99
2019-06-10T02:29:11.180Z,99.99
2019-06-10T02:30:14.660Z,99.99
2019-06-10T02:31:05.959Z,99.99
2019-06-10T02:32:05.169Z,99.99
2019-06-10T02:33:03.137Z,99.99
2019-06-10T02:34:02.498Z,99.99
2019-06-10T02:35:08.467Z,99.99
2019-06-10T02:35:58.975Z,99.99
2019-06-10T02:36:57.524Z,99.99
2019-06-10T02:37:56.149Z,99.99
2019-06-10T02:38:54.688Z,99.99
2019-06-10T02:39:54.117Z,99.99
2019-06-10T02:40:53.806Z,99.99
2019-06-10T02:41:53.434Z,99.99
2019-06-10T02:42:49.050Z,99.99
2019-06-10T02:43:47.674Z,99.99
2019-06-10T02:44:46.311Z,99.99
2019-06-10T02:45:44.948Z,99.99
2019-06-10T02:46:44.016Z,99.99
2019-06-10T02:47:44.254Z,99.99
2019-06-10T02:48:43.576Z,99.99
2019-06-10T02:49:52.415Z,99.99
2019-06-10T02:50:38.221Z,99.99
2019-06-10T02:51:36.860Z,99.99
2019-06-10T02:52:38.291Z,99.99
2019-06-10T02:53:35.845Z,99.99
2019-06-10T02:54:35.720Z,99.99
2019-06-10T02:55:34.906Z,99.99
2019-06-10T02:56:32.046Z,99.99
2019-06-10T02:57:35.092Z,99.99
2019-06-10T02:58:31.353Z,99.99
2019-06-10T02:59:27.269Z,99.99
2019-06-10T03:00:36.759Z,99.99
2019-06-10T03:01:28.209Z,99.99
2019-06-10T03:02:23.569Z,99.99
2019-06-10T03:03:27.816Z,99.99
2019-06-10T03:04:20.721Z,99.99
2019-06-10T03:05:19.526Z,99.99
2019-06-10T03:06:17.776Z,99.99
2019-06-10T03:07:15.856Z,99.99
2019-06-10T03:08:13.395Z,99.99
2019-06-10T03:09:14.035Z,99.99
2019-06-10T03:10:13.461Z,99.99
2019-06-10T03:11:09.015Z,99.99
2019-06-10T03:12:07.666Z,99.99
2019-06-10T03:13:06.468Z,99.99
2019-06-10T03:14:05.033Z,99.99
2019-06-10T03:15:03.608Z,99.99
2019-06-10T03:16:02.761Z,99.99
2019-06-10T03:17:03.045Z,99.99
2019-06-10T03:17:59.303Z,99.99
2019-06-10T03:18:57.852Z,99.99
2019-06-10T03:19:56.482Z,99.99
2019-06-10T03:20:55.035Z,99.99
2019-06-10T03:21:53.582Z,99.99
2019-06-10T03:22:52.590Z,99.99
2019-06-10T03:23:52.979Z,99.99
2019-06-10T03:24:49.410Z,99.99
2019-06-10T03:25:48.023Z,99.99
2019-06-10T03:26:46.689Z,99.99
2019-06-10T03:27:45.267Z,99.99
2019-06-10T03:28:43.870Z,99.99
2019-06-10T03:29:42.546Z,99.99
2019-06-10T03:30:52.472Z,99.99
2019-06-10T03:31:42.927Z,99.99
2019-06-10T03:32:42.139Z,99.99
2019-06-10T03:33:41.713Z,99.99
2019-06-10T03:34:41.381Z,99.99
2019-06-10T03:35:34.249Z,99.99
2019-06-10T03:36:32.826Z,99.99
2019-06-10T03:37:32.852Z,99.99
2019-06-10T03:38:32.242Z,99.99
2019-06-10T03:39:28.774Z,99.99
2019-06-10T03:40:27.702Z,99.99
2019-06-10T03:41:26.745Z,99.99
2019-06-10T03:42:26.165Z,99.99
2019-06-10T03:43:23.737Z,99.99
2019-06-10T03:44:23.510Z,99.99
2019-06-10T03:45:21.620Z,99.99
2019-06-10T03:46:19.056Z,99.99
2019-06-10T03:47:17.254Z,99.99
2019-06-10T03:48:17.058Z,99.99
2019-06-10T03:49:14.828Z,99.99
2019-06-10T03:50:13.502Z,99.99
2019-06-10T03:51:12.558Z,99.99
2019-06-10T03:52:12.816Z,99.99
2019-06-10T03:53:09.291Z,99.99
2019-06-10T03:54:07.972Z,99.99
2019-06-10T03:55:06.594Z,99.99
2019-06-10T03:56:05.131Z,99.99
2019-06-10T03:57:03.728Z,99.99
2019-06-10T03:58:02.451Z,99.99
2019-06-10T03:59:02.749Z,99.99
2019-06-10T04:00:01.897Z,99.99
2019-06-10T04:00:58.224Z,99.99
2019-06-10T04:04:22.363Z,99.99
2019-06-10T04:05:19.394Z,99.99
2019-06-10T04:06:17.438Z,99.99
2019-06-10T04:20:49.155Z,99.99
2019-06-10T04:21:47.734Z,99.99
2019-06-10T04:22:46.314Z,99.99
2019-06-10T04:23:44.847Z,99.99
2019-06-10T04:24:43.449Z,99.99
2019-06-10T04:25:42.718Z,99.99
2019-06-10T04:26:43.242Z,99.99
2019-06-10T04:27:39.367Z,99.99
2019-06-10T04:28:37.911Z,99.99
2019-06-10T04:29:36.488Z,99.99
2019-06-10T04:30:35.048Z,99.99
2019-06-10T04:31:33.638Z,99.99
2019-06-10T04:32:32.409Z,99.99
2019-06-10T04:33:32.816Z,99.99
2019-06-10T04:34:30.934Z,99.99
2019-06-10T04:35:29.108Z,99.99
2019-06-10T04:36:28.108Z,99.99
2019-06-10T04:37:26.474Z,99.99
2019-06-10T04:38:25.956Z,99.99
2019-06-10T04:39:24.286Z,99.99
2019-06-10T04:40:23.521Z,99.99
2019-06-10T04:41:20.407Z,99.99
2019-06-10T04:42:18.421Z,99.99
2019-06-10T04:43:16.852Z,99.99
2019-06-10T04:44:15.383Z,99.99
2019-06-10T04:45:14.131Z,99.99
2019-06-10T04:46:12.899Z,99.99
2019-06-10T04:47:12.029Z,99.99
2019-06-10T04:48:12.282Z,99.99
2019-06-10T04:49:08.490Z,99.99
2019-06-10T04:50:20.723Z,99.99
2019-06-10T04:51:05.573Z,99.99
2019-06-10T04:52:04.212Z,99.99
2019-06-10T04:53:02.821Z,99.99
2019-06-10T04:54:02.938Z,99.99
2019-06-10T04:55:02.273Z,99.99
2019-06-10T04:55:58.503Z,99.99
2019-06-10T04:56:57.100Z,99.99
2019-06-10T04:57:55.665Z,99.99
2019-06-10T04:58:54.460Z,99.99
2019-06-10T04:59:53.057Z,99.99
2019-06-10T05:00:52.324Z,99.99
2019-06-10T05:01:52.881Z,99.99
2019-06-10T05:02:48.880Z,99.99
2019-06-10T05:03:47.412Z,99.99
2019-06-10T05:04:45.996Z,99.99
2019-06-10T05:05:44.666Z,99.99
2019-06-10T05:06:43.194Z,99.99
2019-06-10T05:07:42.726Z,99.99
2019-06-10T05:08:42.317Z,99.99
2019-06-10T05:09:38.918Z,99.99
2019-06-10T05:10:37.537Z,99.99
2019-06-10T05:11:36.191Z,99.99
2019-06-10T05:12:34.816Z,99.99
2019-06-10T05:13:33.809Z,99.99
2019-06-10T05:14:33.348Z,99.99
2019-06-10T05:15:32.158Z,99.99
2019-06-10T05:16:31.921Z,99.99
2019-06-10T05:17:29.605Z,99.99
2019-06-10T05:18:27.305Z,99.99
2019-06-10T05:19:26.398Z,99.99
2019-06-10T05:20:39.022Z,99.99
2019-06-10T05:21:24.514Z,99.99
2019-06-10T05:22:23.627Z,99.99
2019-06-10T05:23:19.613Z,99.99
2019-06-10T05:24:17.868Z,99.99
2019-06-10T05:25:16.499Z,99.99
2019-06-10T05:26:15.063Z,99.99
2019-06-10T05:27:13.671Z,99.99
2019-06-10T05:28:12.402Z,99.99
2019-06-10T05:29:12.064Z,99.99
2019-06-10T05:30:09.440Z,99.99
2019-06-10T05:31:07.958Z,99.99
2019-06-10T05:32:06.577Z,99.99
2019-06-10T05:33:05.097Z,99.99
2019-06-10T05:34:03.734Z,99.99
2019-06-10T05:35:03.448Z,99.99
2019-06-10T05:36:02.454Z,99.99
2019-06-10T05:36:59.576Z,99.99
2019-06-10T05:37:58.175Z,99.99
2019-06-10T05:38:56.760Z,99.99
2019-06-10T05:39:55.311Z,99.99
2019-06-10T05:40:54.019Z,99.99
2019-06-10T05:41:53.162Z,99.99
2019-06-10T05:42:52.817Z,99.99
2019-06-10T05:43:52.094Z,99.99
2019-06-10T05:44:48.485Z,99.99
2019-06-10T05:45:47.036Z,99.99
2019-06-10T05:46:45.745Z,99.99
2019-06-10T05:47:44.541Z,99.99
2019-06-10T05:48:43.701Z,99.99
2019-06-10T05:49:43.042Z,99.99
2019-06-10T05:50:42.646Z,99.99
2019-06-10T05:51:38.951Z,99.99
2019-06-10T05:52:37.408Z,99.99
2019-06-10T05:53:35.941Z,99.99
2019-06-10T05:54:35.451Z,99.99
2019-06-10T05:55:34.826Z,99.99
2019-06-10T05:56:33.790Z,99.99
2019-06-10T05:57:33.449Z,99.99
2019-06-10T05:58:29.387Z,99.99
2019-06-10T05:59:27.758Z,99.99
2019-06-10T06:00:27.497Z,99.99
2019-06-10T06:01:25.655Z,99.99
2019-06-10T06:02:23.896Z,99.99
2019-06-10T06:03:22.922Z,99.99
2019-06-10T06:04:22.911Z,99.99
2019-06-10T06:05:19.196Z,99.99
2019-06-10T06:06:17.734Z,99.99
2019-06-10T06:07:16.266Z,99.99
2019-06-10T06:08:14.826Z,99.99
2019-06-10T06:09:13.421Z,99.99
2019-06-10T06:10:12.957Z,99.99
2019-06-10T06:11:12.572Z,99.99
2019-06-10T06:12:11.812Z,99.99
2019-06-10T06:13:07.971Z,99.99
2019-06-10T06:14:06.681Z,99.99
2019-06-10T06:15:05.201Z,99.99
2019-06-10T06:16:03.791Z,99.99
2019-06-10T06:17:02.412Z,99.99
2019-06-10T06:18:07.056Z,99.99
2019-06-10T06:19:00.249Z,99.99
2019-06-10T06:19:58.792Z,99.99
2019-06-10T06:20:57.328Z,99.99
2019-06-10T06:21:55.875Z,99.99
2019-06-10T06:22:54.493Z,99.99
2019-06-10T06:23:53.086Z,99.99
2019-06-10T06:24:52.203Z,99.99
2019-06-10T06:25:52.945Z,99.99
2019-06-10T06:26:48.936Z,99.99
2019-06-10T06:27:47.519Z,99.99
2019-06-10T06:28:46.542Z,99.99
2019-06-10T06:29:45.079Z,99.99
2019-06-10T06:30:43.743Z,99.99
2019-06-10T06:31:43.049Z,99.99
2019-06-10T06:32:43.483Z,99.99
2019-06-10T06:33:39.948Z,99.99
2019-06-10T06:34:38.771Z,99.99
2019-06-10T06:35:42.408Z,99.99
2019-06-10T06:36:36.973Z,99.99
2019-06-10T06:37:36.344Z,99.99
2019-06-10T06:38:33.969Z,99.99
2019-06-10T06:39:33.202Z,99.99
2019-06-10T06:40:29.742Z,99.99
2019-06-10T06:41:29.413Z,99.99
2019-06-10T06:42:27.352Z,99.99
2019-06-10T06:43:28.307Z,99.99
2019-06-10T06:44:24.131Z,99.99
2019-06-10T06:45:22.785Z,99.99
2019-06-10T06:46:23.309Z,99.99
2019-06-10T06:47:22.401Z,99.99
2019-06-10T06:48:18.707Z,99.99
2019-06-10T06:49:17.234Z,99.99
2019-06-10T06:50:15.849Z,99.99
2019-06-10T06:51:14.483Z,99.99
2019-06-10T06:52:13.084Z,99.99
2019-06-10T06:53:24.167Z,99.99
2019-06-10T06:54:12.514Z,99.99
2019-06-10T06:55:09.286Z,99.99
2019-06-10T06:56:07.850Z,99.99
2019-06-10T06:57:06.509Z,99.99
2019-06-10T06:58:05.046Z,99.99
2019-06-10T06:59:03.599Z,99.99
2019-06-10T07:00:23.886Z,99.99
2019-06-10T07:01:09.722Z,99.99
2019-06-10T07:01:59.568Z,99.99
2019-06-10T07:02:58.288Z,99.99
2019-06-10T07:03:56.850Z,99.99
2019-06-10T07:04:55.415Z,99.99
2019-06-10T07:05:53.974Z,99.99
2019-06-10T07:06:55.465Z,99.99
2019-06-10T07:07:52.708Z,99.99
2019-06-10T07:09:01.294Z,99.99
2019-06-10T07:09:48.750Z,99.99
2019-06-10T07:10:47.321Z,99.99
2019-06-10T07:11:45.898Z,99.99
2019-06-10T07:12:44.544Z,99.99
2019-06-10T07:13:45.506Z,99.99
2019-06-10T07:14:44.771Z,99.99
2019-06-10T07:15:42.058Z,99.99
2019-06-10T07:16:39.486Z,99.99
2019-06-10T07:17:39.015Z,99.99
2019-06-10T07:18:40.922Z,99.99
2019-06-10T07:19:37.937Z,99.99
2019-06-10T07:20:36.258Z,99.99
2019-06-10T07:21:34.143Z,99.99
2019-06-10T07:22:32.535Z,99.99
2019-06-10T07:23:29.128Z,99.99
2019-06-10T07:24:27.673Z,99.99
2019-06-10T07:25:26.644Z,99.99
2019-06-10T07:26:25.187Z,99.99
2019-06-10T07:27:23.846Z,99.99
2019-06-10T07:28:22.994Z,99.99
2019-06-10T07:29:22.562Z,99.99
2019-06-10T07:30:19.631Z,99.99
2019-06-10T07:31:23.735Z,99.99
2019-06-10T07:32:19.006Z,99.99
2019-06-10T07:33:17.544Z,99.99
2019-06-10T07:34:16.082Z,99.99
2019-06-10T07:35:14.683Z,99.99
2019-06-10T07:36:13.396Z,99.99
2019-06-10T07:37:12.994Z,99.99
2019-06-10T07:38:12.194Z,99.99
2019-06-10T07:39:13.320Z,99.99
2019-06-10T07:40:09.856Z,99.99
2019-06-10T07:41:08.767Z,99.99
2019-06-10T07:42:07.281Z,99.99
2019-06-10T07:43:06.041Z,99.99
2019-06-10T07:44:04.736Z,99.99
2019-06-10T07:45:03.309Z,99.99
2019-06-10T07:46:03.294Z,99.99
2019-06-10T07:47:02.584Z,99.99
2019-06-10T07:48:02.787Z,99.99
2019-06-10T07:49:03.087Z,99.99
2019-06-10T07:49:58.535Z,99.99
2019-06-10T07:50:57.057Z,99.99
2019-06-10T07:51:55.590Z,99.99
2019-06-10T07:52:54.138Z,99.99
2019-06-10T07:53:52.923Z,99.99
2019-06-10T07:54:52.898Z,99.99
2019-06-10T07:55:49.977Z,99.99
2019-06-10T07:56:50.620Z,99.99
2019-06-10T07:57:47.153Z,99.99
2019-06-10T07:58:47.523Z,99.99
2019-06-10T07:59:45.745Z,99.99
2019-06-10T08:00:46.393Z,99.99
2019-06-10T08:01:48.132Z,99.99
2019-06-10T08:02:44.543Z,99.99
2019-06-10T08:03:46.086Z,99.99
2019-06-10T08:04:44.516Z,99.99
2019-06-10T08:05:44.315Z,99.99
2019-06-10T08:06:39.891Z,99.99
2019-06-10T08:07:38.837Z,99.99
2019-06-10T08:08:37.029Z,99.99
2019-06-10T08:09:36.078Z,99.99
2019-06-10T08:10:34.992Z,99.99
2019-06-10T08:11:33.271Z,99.99
2019-06-10T08:12:32.521Z,99.99
2019-06-10T08:13:32.227Z,99.99
2019-06-10T08:14:28.661Z,99.99
2019-06-10T08:15:28.128Z,99.99
2019-06-10T08:16:26.818Z,99.99
2019-06-10T08:17:25.407Z,99.99
2019-06-10T08:18:23.927Z,99.99
2019-06-10T08:19:34.097Z,99.99
2019-06-10T08:20:22.227Z,99.99
2019-06-10T08:21:19.634Z,99.99
2019-06-10T08:22:31.029Z,99.99
2019-06-10T08:23:17.081Z,99.99
2019-06-10T08:24:15.622Z,99.99
2019-06-10T08:25:14.322Z,99.99
2019-06-10T08:26:12.979Z,99.99
2019-06-10T08:27:12.046Z,99.99
2019-06-10T08:28:10.072Z,99.99
2019-06-10T08:29:08.668Z,99.99
2019-06-10T08:30:18.423Z,99.99
2019-06-10T08:31:05.749Z,99.99
2019-06-10T08:32:04.391Z,99.21
2019-06-10T08:33:03.460Z,96.03
2019-06-10T08:34:02.916Z,95.73
2019-06-10T08:35:02.747Z,95.93
2019-06-10T08:36:00.520Z,94.91
2019-06-10T08:36:57.490Z,95.1
2019-06-10T08:37:56.114Z,95.1
2019-06-10T08:38:54.703Z,94.48
2019-06-10T08:39:53.363Z,93.41
2019-06-10T08:40:52.431Z,93.32
2019-06-10T08:41:52.662Z,92.25
2019-06-10T08:42:48.983Z,91.96
2019-06-10T08:43:48.480Z,93.7
2019-06-10T08:44:48.226Z,92.83
2019-06-10T08:45:46.755Z,92.64
2019-06-10T08:46:45.015Z,92.54
2019-06-10T08:47:45.609Z,93.51
2019-06-10T08:48:41.629Z,94.28
2019-06-10T08:49:42.442Z,94.09
2019-06-10T08:50:39.329Z,94.18
2019-06-10T08:51:37.169Z,93.32
2019-06-10T08:52:50.215Z,93.32
2019-06-10T08:53:34.561Z,93.12
2019-06-10T08:54:33.139Z,94.18
2019-06-10T08:55:33.430Z,93.51
2019-06-10T08:56:32.564Z,93.6
2019-06-10T08:57:28.751Z,93.51
2019-06-10T08:58:27.295Z,92.74
2019-06-10T08:59:26.758Z,93.8
2019-06-10T09:00:25.675Z,92.83
2019-06-10T09:01:24.141Z,92.58
2019-06-10T09:02:23.145Z,93.17
2019-06-10T09:03:23.168Z,91.67
2019-06-10T09:04:22.671Z,91.58
2019-06-10T09:05:18.704Z,90.9
2019-06-10T09:06:17.257Z,91.38
2019-06-10T09:07:15.816Z,90.12
2019-06-10T09:08:14.383Z,90.22
2019-06-10T09:09:13.082Z,90.03
2019-06-10T09:10:13.461Z,89.45
2019-06-10T09:11:12.710Z,89.15
2019-06-10T09:12:08.891Z,90.12
2019-06-10T09:13:07.471Z,90.22
2019-06-10T09:14:06.142Z,90.12
2019-06-10T09:15:04.853Z,89.35
2019-06-10T09:16:12.477Z,90.03
2019-06-10T09:17:03.361Z,91.33
2019-06-10T09:18:02.597Z,90.66
2019-06-10T09:18:59.121Z,90.71
2019-06-10T09:19:57.663Z,90.42
2019-06-10T09:20:56.454Z,90.13
2019-06-10T09:21:56.267Z,90.33
2019-06-10T09:23:13.181Z,89.94
2019-06-10T09:23:58.547Z,90.71
2019-06-10T09:24:54.931Z,90.85
2019-06-10T09:25:54.353Z,89.79
2019-06-10T09:26:50.166Z,88.96
2019-06-10T09:27:49.340Z,88.39
2019-06-10T09:28:49.162Z,87.9
2019-06-10T09:29:47.791Z,86.88
2019-06-10T09:30:47.442Z,85.52
2019-06-10T09:31:45.558Z,84.46
2019-06-10T09:32:39.795Z,85.57
2019-06-10T09:33:39.578Z,85.18
2019-06-10T09:34:36.826Z,86.63
2019-06-10T09:35:35.372Z,86.15
2019-06-10T09:36:34.033Z,86.24
2019-06-10T09:37:32.813Z,85.18
2019-06-10T09:38:33.323Z,85.13
2019-06-10T09:39:32.709Z,85.31
2019-06-10T09:40:28.958Z,84.25
2019-06-10T09:41:37.232Z,84.93
2019-06-10T09:42:26.221Z,85.9
2019-06-10T09:43:24.786Z,86.34
2019-06-10T09:44:23.314Z,85.86
2019-06-10T09:45:22.358Z,86.24
2019-06-10T09:46:20.407Z,85.96
2019-06-10T09:47:18.967Z,85.86
2019-06-10T09:48:17.555Z,85.42
2019-06-10T09:49:16.362Z,86.1
2019-06-10T09:50:15.004Z,86.49
2019-06-10T09:51:13.486Z,85.33
2019-06-10T09:52:13.433Z,85.66
2019-06-10T09:53:12.686Z,85.08
2019-06-10T09:54:09.485Z,85.76
2019-06-10T09:55:08.111Z,85.47
2019-06-10T09:56:06.585Z,85.41
2019-06-10T09:57:05.125Z,84.6
2019-06-10T09:58:03.665Z,83.96
2019-06-10T09:59:03.305Z,84.16
2019-06-10T10:00:03.383Z,84.74
2019-06-10T10:00:59.369Z,84.25
2019-06-10T10:02:01.761Z,83.86
2019-06-10T10:02:56.684Z,83
2019-06-10T10:03:59.978Z,83.28
2019-06-10T10:04:58.040Z,83.72
2019-06-10T10:05:59.077Z,83.52
2019-06-10T10:06:55.242Z,82.45
2019-06-10T10:07:51.922Z,82.98
2019-06-10T10:08:51.241Z,81.91
2019-06-10T10:09:49.897Z,82.01
2019-06-10T10:10:47.874Z,81.13
2019-06-10T10:11:46.173Z,82.01
2019-06-10T10:12:44.356Z,82.78
2019-06-10T10:13:43.912Z,82.35
2019-06-10T10:14:42.172Z,82.94
2019-06-10T10:15:38.752Z,82.6
2019-06-10T10:16:37.351Z,82.51
2019-06-10T10:17:36.078Z,83.28
2019-06-10T10:18:34.814Z,83.25
2019-06-10T10:19:33.440Z,82.66
2019-06-10T10:20:34.042Z,83.05
2019-06-10T10:21:30.853Z,83.25
2019-06-10T10:22:29.402Z,84.56
2019-06-10T10:23:27.969Z,85.24
2019-06-10T10:24:26.546Z,85.72
2019-06-10T10:25:25.094Z,84.8
2019-06-10T10:26:23.684Z,85.14
2019-06-10T10:27:23.329Z,85.48
2019-06-10T10:28:22.998Z,86.35
2019-06-10T10:29:19.605Z,86.25
2019-06-10T10:30:18.283Z,86.55
2019-06-10T10:31:16.840Z,85.97
2019-06-10T10:32:15.469Z,85.97
2019-06-10T10:33:14.059Z,85.68
2019-06-10T10:34:13.407Z,86.25
2019-06-10T10:35:12.614Z,86.65
2019-06-10T10:36:13.220Z,87.62
2019-06-10T10:37:09.185Z,87.76
2019-06-10T10:38:07.746Z,89.26
2019-06-10T10:39:06.292Z,89.11
2019-06-10T10:40:04.900Z,89.07
2019-06-10T10:41:04.658Z,88.24
2019-06-10T10:42:03.310Z,88.09
2019-06-10T10:43:17.021Z,88.19
2019-06-10T10:43:59.218Z,87.37
2019-06-10T10:44:59.160Z,86.55
2019-06-10T10:46:00.041Z,85.87
2019-06-10T10:46:55.855Z,84.8
2019-06-10T10:47:56.645Z,84.27
2019-06-10T10:48:55.092Z,84.41
2019-06-10T10:49:55.192Z,84.01
2019-06-10T10:50:52.674Z,82.57
2019-06-10T10:51:49.045Z,82.08
2019-06-10T10:52:48.188Z,81.64
2019-06-10T10:53:48.938Z,81.73
2019-06-10T10:54:45.000Z,81.25
2019-06-10T10:55:43.747Z,80.28
2019-06-10T10:56:43.557Z,81.02
2019-06-10T10:57:40.280Z,81.15
2019-06-10T10:58:38.693Z,80.05
2019-06-10T10:59:37.282Z,79.17
2019-06-10T11:00:37.443Z,79.76
2019-06-10T11:01:34.665Z,80.47
2019-06-10T11:02:33.485Z,80.44
2019-06-10T11:03:33.538Z,81.15
2019-06-10T11:04:32.770Z,81.21
2019-06-10T11:05:29.167Z,81.7
2019-06-10T11:06:27.751Z,82.08
2019-06-10T11:07:26.315Z,80.54
2019-06-10T11:08:25.209Z,81.12
2019-06-10T11:09:23.771Z,80.47
2019-06-10T11:10:23.153Z,80.54
2019-06-10T11:11:22.998Z,80.47
2019-06-10T11:12:22.375Z,80.24
2019-06-10T11:13:18.697Z,79.85
2019-06-10T11:14:17.266Z,80.15
2019-06-10T11:15:15.824Z,80.44
2019-06-10T11:16:14.807Z,80.92
2019-06-10T11:17:13.493Z,80.44
2019-06-10T11:18:12.717Z,79.91
2019-06-10T11:19:12.963Z,80.98
2019-06-10T11:20:09.612Z,81.07
2019-06-10T11:21:08.295Z,81.12
2019-06-10T11:22:07.018Z,80.63
2019-06-10T11:23:05.661Z,81.75
2019-06-10T11:24:04.859Z,80.98
2019-06-10T11:25:03.094Z,81.37
2019-06-10T11:26:01.734Z,81.65
2019-06-10T11:27:02.970Z,81.95
2019-06-10T11:27:58.959Z,82.62
2019-06-10T11:28:57.922Z,82.66
2019-06-10T11:29:57.746Z,81.98
2019-06-10T11:30:56.806Z,81.35
2019-06-10T11:31:56.625Z,80.8
2019-06-10T11:32:55.851Z,80.22
2019-06-10T11:33:55.912Z,78.71
2019-06-10T11:34:53.529Z,78.81
2019-06-10T11:35:48.998Z,77.94
2019-06-10T11:36:47.953Z,77.36
2019-06-10T11:37:46.803Z,77.65
2019-06-10T11:38:44.672Z,77.51
2019-06-10T11:39:43.339Z,78.42
2019-06-10T11:40:42.808Z,78.42
2019-06-10T11:41:42.865Z,77.94
2019-06-10T11:42:39.436Z,78.58
2019-06-10T11:43:38.169Z,79.45
2019-06-10T11:44:36.724Z,79.45
2019-06-10T11:45:35.328Z,78.97
2019-06-10T11:46:33.864Z,79.74
2019-06-10T11:47:33.061Z,80.03
2019-06-10T11:48:32.730Z,79.35
2019-06-10T11:49:29.738Z,79.93
2019-06-10T11:50:28.355Z,79.35
2019-06-10T11:51:26.958Z,78.58
2019-06-10T11:52:25.510Z,78.33
2019-06-10T11:53:24.173Z,78.13
2019-06-10T11:54:23.414Z,77.55
2019-06-10T11:55:23.749Z,77.45
2019-06-10T11:56:21.734Z,77.9
2019-06-10T11:57:18.669Z,76.93
2019-06-10T11:58:17.172Z,77.42
2019-06-10T11:59:15.717Z,76.74
2019-06-10T12:00:17.214Z,77.03
2019-06-10T12:01:13.387Z,77.22
2019-06-10T12:02:13.178Z,76.48
2019-06-10T12:03:10.310Z,77.65
2019-06-10T12:04:08.864Z,77.8
2019-06-10T12:05:07.431Z,77.9
2019-06-10T12:06:06.030Z,78.48
2019-06-10T12:07:04.648Z,79.2
2019-06-10T12:08:03.238Z,78.97
2019-06-10T12:09:02.884Z,78.58
2019-06-10T12:10:01.299Z,78.58
2019-06-10T12:11:02.225Z,78.19
2019-06-10T12:11:59.255Z,78.19
2019-06-10T12:12:58.842Z,77.7
2019-06-10T12:14:00.528Z,77.8
2019-06-10T12:14:56.528Z,77.32
2019-06-10T12:16:32.357Z,77.8
2019-06-10T12:17:17.311Z,76.51
2019-06-10T12:17:52.304Z,76.51
2019-06-10T12:18:49.036Z,77.37
2019-06-10T12:19:46.768Z,77.47
2019-06-10T12:20:45.335Z,77.37
2019-06-10T12:23:27.426Z,77.44
2019-06-10T12:24:26.054Z,77.82
2019-06-10T12:25:30.762Z,77.24
2019-06-10T12:26:23.582Z,76.66
2019-06-10T12:27:22.082Z,76.46
2019-06-10T12:28:20.974Z,76.56
2019-06-10T12:29:18.940Z,75.92
2019-06-10T12:30:17.498Z,76.46
2019-06-10T12:31:16.303Z,77.28
2019-06-10T12:32:14.922Z,77.24
2019-06-10T12:33:21.242Z,77.3
2019-06-10T12:34:12.573Z,77.98
2019-06-10T12:35:13.476Z,79.04
2019-06-10T12:36:09.439Z,79.72
2019-06-10T12:37:10.995Z,80.36
2019-06-10T12:38:06.609Z,81.13
2019-06-10T12:39:10.470Z,80.46
2019-06-10T12:40:05.613Z,81.32
2019-06-10T12:41:07.781Z,81.13
2019-06-10T12:42:03.949Z,80.9
2019-06-10T12:43:00.791Z,81.77
2019-06-10T12:43:58.411Z,80.9
2019-06-10T12:44:57.178Z,81.19
2019-06-10T12:45:56.257Z,81.29
2019-06-10T12:46:57.855Z,82.11
2019-06-10T12:47:54.774Z,82.5
2019-06-10T12:48:53.894Z,82.98
2019-06-10T12:49:51.989Z,83.08
2019-06-10T12:50:48.664Z,83.08
2019-06-10T12:51:47.210Z,83.08
2019-06-10T12:52:45.866Z,83.47
2019-06-10T12:53:44.457Z,84.82
2019-06-10T12:54:43.458Z,84.82
2019-06-10T12:55:44.322Z,85.4
2019-06-10T12:56:42.156Z,85.88
2019-06-10T12:57:38.819Z,86.56
2019-06-10T12:58:37.357Z,87.71
2019-06-10T12:59:36.177Z,87.52
2019-06-10T13:00:34.756Z,87.91
2019-06-10T13:01:33.335Z,88.29
2019-06-10T13:02:34.558Z,87.91
2019-06-10T13:03:32.907Z,88.49
2019-06-10T13:04:29.254Z,88.2
2019-06-10T13:05:27.969Z,88.29
2019-06-10T13:06:26.538Z,88.97
2019-06-10T13:07:25.085Z,90.03
2019-06-10T13:08:24.150Z,90.23
2019-06-10T13:09:23.549Z,90.81
2019-06-10T13:10:22.552Z,91.58
2019-06-10T13:13:05.615Z,92.65
2019-06-10T13:13:59.943Z,92.35
2019-06-10T13:14:59.841Z,92.83
2019-06-10T13:15:58.105Z,93.13